KTTNKWWD

Guest
Details From KTTN - Trenton Mercer
To KWWD - CAPE MAY CO
Flight Number -
Tags generated
Created
Modified
Stats Distance 76 nm / 141 km
Max Altitude 6,500 ft / 1,981 m
Waypoints 3
Social Downloads 2
Likes 0
Share VATSIM

Download

Looking for another format? Having issues loading an existing format? Contact us
Advertisement - Login to hide

Notes

Basic altitude profile: - Ascent Rate: 1000ft/min - Ascent Speed: 90kts - Cruise Altitude: 5000ft - Cruise Speed: 120kts - Descent Rate: 1100ft/min - Descent Speed: 130kts Options: - Use NATs: no - Use PACOTS: no - Use low airways: yes - Use high airways: no

Route

KTTN HOLEY KWWD

ID Type Via Altitude Latitude Longitude Leg Dist Tot Dist Heading (true) Name
O KTTN APT - 0 ft / 0 m 40.27685˚ -74.81345˚ - 0 nm - Trenton Mercer
HOLEY FIX - 6,500 ft / 1,981 m 39.97159˚ -74.82688˚ 18 nm 18 nm 182° / 182° -
O KWWD APT - 0 ft / 0 m 39.00851˚ -74.90858˚ 57 nm 76 nm 184° / 184° CAPE MAY CO

Altitude Profile

Advertisement - Login to hide

KTTN

Details ICAO KTTN (TTN)
Name Trenton Mercer
Region United States
Timezone America/New_York (UTC-5.0)
Stats Elevation 213 ft / 65 m (AMSL)
Location 40.276853° -74.813447°
Runways 2
Magnetic Variation 12.379° W

METAR

KTTN 141653Z 34011G18KT 10SM FEW030 M01/M08 A2978 RMK AO2 SLP079 T10111078

Decode

TAF

TAF KTTN 141120Z 1412/1512 VRB03KT P6SM VCSH OVC025 TEMPO 1412/1413 5SM -SN FM141300 VRB03KT P6SM BKN025 FM141400 30004KT P6SM BKN030 FM141500 31009G18KT P6SM SCT035 FM142300 31006KT P6SM SCT200 FM150600 VRB03KT P6SM BKN200

Decode

Departure Runways

ID Width Length Bearing (true) Bearing (mag) Surface Threshold Offset Overrun Length
06 151 ft / 46 m 6,004 ft / 1,830 m 46.36° 58.74° Asphalt 0 ft / 0 m 0 ft / 0 m
16 151 ft / 46 m 4,802 ft / 1,464 m 145.77° 158.15° Asphalt 0 ft / 0 m 0 ft / 0 m
24 151 ft / 46 m 6,004 ft / 1,830 m 226.37° 238.75° Asphalt 0 ft / 0 m 0 ft / 0 m
34 151 ft / 46 m 4,802 ft / 1,464 m 325.77° 338.15° Asphalt 0 ft / 0 m 0 ft / 0 m

KWWD

Details ICAO KWWD (WWD)
Name CAPE MAY CO
Region United States
Timezone America/New_York (UTC-5.0)
Stats Elevation 23 ft / 7 m (AMSL)
Location 39.008507° -74.908585°
Runways 2
Magnetic Variation 12.046° W

METAR

KWWD 141655Z AUTO 30012G20KT 10SM FEW035 04/M02 A2981 RMK AO2 PK WND 30027/1638 SLP096 T00391022

Decode

TAF

Not found

Destination Runways

ID Width Length Bearing (true) Bearing (mag) Surface Threshold Offset Overrun Length
01 151 ft / 46 m 5,010 ft / 1,527 m 359.61° 11.66° Asphalt 0 ft / 0 m 0 ft / 0 m
10 151 ft / 46 m 4,987 ft / 1,520 m 89.59° 101.64° Asphalt 0 ft / 0 m 0 ft / 0 m
19 151 ft / 46 m 5,010 ft / 1,527 m 179.61° 191.66° Asphalt 79 ft / 24 m 0 ft / 0 m
28 151 ft / 46 m 4,987 ft / 1,520 m 269.60° 281.65° Asphalt 0 ft / 0 m 0 ft / 0 m

Approach Navaids

Runway Type Ident Frequency Range Bearing (true) Bearing (mag) Slope Elevation
19 Localiser ICEJ 108.90 MHz 18 nm / 33 km 179.62° 191.67° - 21 ft / 6 m (AMSL)

Popular Alternatives